createdAt,value
2018-08-19T00:02:19.709Z,6.30
2018-08-19T00:05:05.572Z,5.35
2018-08-19T00:07:34.971Z,5.20
2018-08-19T00:10:03.615Z,5.78
2018-08-19T00:12:39.813Z,5.67
2018-08-19T00:15:08.261Z,5.70
2018-08-19T00:17:36.694Z,5.28
2018-08-19T00:20:07.402Z,5.50
2018-08-19T00:22:35.828Z,5.15
2018-08-19T00:25:04.574Z,5.53
2018-08-19T00:27:34.654Z,5.15
2018-08-19T00:30:03.153Z,5.22
2018-08-19T00:32:31.530Z,5.47
2018-08-19T00:34:59.955Z,4.85
2018-08-19T00:37:28.445Z,5.25
2018-08-19T00:40:01.280Z,4.85
2018-08-19T00:42:29.668Z,6.12
2018-08-19T00:44:58.054Z,5.78
2018-08-19T00:47:26.489Z,4.87
2018-08-19T00:49:59.115Z,5.28
2018-08-19T00:52:27.598Z,5.37
2018-08-19T00:54:56.048Z,4.92
2018-08-19T00:57:24.512Z,4.90
2018-08-19T00:59:52.907Z,4.75
2018-08-19T01:02:21.344Z,5.55
2018-08-19T01:04:50.741Z,5.47
2018-08-19T01:07:19.197Z,4.83
2018-08-19T01:09:47.642Z,5.53
2018-08-19T01:12:16.085Z,5.42
2018-08-19T01:14:44.459Z,5.47
2018-08-19T01:17:12.914Z,5.35
2018-08-19T01:19:41.390Z,5.53
2018-08-19T01:22:09.844Z,5.40
2018-08-19T01:24:38.268Z,5.85
2018-08-19T01:27:07.147Z,5.95
2018-08-19T01:29:51.212Z,5.50
2018-08-19T01:32:21.349Z,5.40
2018-08-19T01:34:49.746Z,5.62
2018-08-19T01:37:18.188Z,5.95
2018-08-19T01:39:46.565Z,5.47
2018-08-19T01:42:14.983Z,5.85
2018-08-19T01:44:43.379Z,5.60
2018-08-19T01:47:11.817Z,6.10
2018-08-19T01:49:40.196Z,5.72
2018-08-19T01:52:08.627Z,5.83
2018-08-19T01:54:37.034Z,5.40
2018-08-19T01:57:05.441Z,5.80
2018-08-19T01:59:34.900Z,5.65
2018-08-19T02:02:05.737Z,5.22
2018-08-19T02:04:40.867Z,5.40
2018-08-19T02:07:09.264Z,5.22
2018-08-19T02:09:41.836Z,5.40
2018-08-19T02:12:10.439Z,5.80
2018-08-19T02:14:38.858Z,5.33
2018-08-19T02:17:07.228Z,5.05
2018-08-19T02:19:35.639Z,6.08
2018-08-19T02:22:04.068Z,5.08
2018-08-19T02:24:32.473Z,5.42
2018-08-19T02:27:00.885Z,5.20
2018-08-19T02:29:34.529Z,5.60
2018-08-19T02:32:04.241Z,5.50
2018-08-19T02:34:35.236Z,5.70
2018-08-19T02:37:08.789Z,5.58
2018-08-19T02:39:40.348Z,5.62
2018-08-19T02:42:23.933Z,6.05
2018-08-19T02:44:54.344Z,6.30
2018-08-19T02:47:22.821Z,6.05
2018-08-19T02:49:51.335Z,5.80
2018-08-19T02:52:33.595Z,6.33
2018-08-19T02:55:04.093Z,5.33
2018-08-19T02:57:33.290Z,5.70
2018-08-19T03:00:02.668Z,6.22
2018-08-19T03:02:33.965Z,5.80
2018-08-19T03:05:04.570Z,6.12
2018-08-19T03:07:33.333Z,6.25
2018-08-19T03:10:05.267Z,5.80
2018-08-19T03:12:33.692Z,6.40
2018-08-19T03:15:02.134Z,5.83
2018-08-19T03:17:31.454Z,6.25
2018-08-19T03:20:00.413Z,5.95
2018-08-19T03:22:29.632Z,5.97
2018-08-19T03:25:00.646Z,5.75
2018-08-19T03:27:29.099Z,5.90
2018-08-19T03:29:58.728Z,6.67
2018-08-19T03:32:27.194Z,6.17
2018-08-19T03:35:02.189Z,6.12
2018-08-19T03:37:30.608Z,6.20
2018-08-19T03:39:58.968Z,6.42
2018-08-19T03:42:27.415Z,6.45
2018-08-19T03:44:59.036Z,6.50
2018-08-19T03:47:28.618Z,6.95
2018-08-19T03:49:57.153Z,6.22
2018-08-19T03:52:25.582Z,6.15
2018-08-19T03:54:53.971Z,6.30
2018-08-19T03:57:22.382Z,6.78
2018-08-19T03:59:50.758Z,6.25
2018-08-19T04:02:19.319Z,6.55
2018-08-19T04:04:48.684Z,6.30
2018-08-19T04:07:17.062Z,6.42
2018-08-19T04:09:45.464Z,6.12
2018-08-19T04:12:15.543Z,6.92
2018-08-19T04:14:43.953Z,5.85
2018-08-19T04:17:14.100Z,6.03
2018-08-19T04:19:42.965Z,6.47
2018-08-19T04:22:11.349Z,6.60
2018-08-19T04:24:39.761Z,6.60
2018-08-19T04:27:10.068Z,6.55
2018-08-19T04:29:38.859Z,6.00
2018-08-19T04:32:24.385Z,6.00
2018-08-19T04:34:53.027Z,6.03
2018-08-19T04:37:21.455Z,5.78
2018-08-19T04:39:49.875Z,5.87
2018-08-19T04:42:18.349Z,6.20
2018-08-19T04:44:46.740Z,6.72
2018-08-19T04:47:29.153Z,6.33
2018-08-19T04:49:57.565Z,5.08
2018-08-19T04:52:26.116Z,5.83
2018-08-19T04:54:55.637Z,5.20
2018-08-19T04:57:24.020Z,6.40
2018-08-19T04:59:52.445Z,6.30
2018-08-19T05:02:21.417Z,5.75
2018-08-19T05:04:49.705Z,5.97
2018-08-19T05:07:17.831Z,6.50
2018-08-19T05:09:46.252Z,5.62
2018-08-19T05:12:14.880Z,5.95
2018-08-19T05:14:43.297Z,5.75
2018-08-19T05:17:11.734Z,6.03
2018-08-19T05:19:40.159Z,5.67
2018-08-19T05:22:15.218Z,5.65
2018-08-19T05:24:45.209Z,5.85
2018-08-19T05:27:14.301Z,5.55
2018-08-19T05:29:42.761Z,5.35
2018-08-19T05:32:13.502Z,6.03
2018-08-19T05:34:42.040Z,5.92
2018-08-19T05:37:10.486Z,6.60
2018-08-19T05:39:44.830Z,6.30
2018-08-19T05:42:13.942Z,6.35
2018-08-19T05:44:42.893Z,6.50
2018-08-19T05:47:12.695Z,6.45
2018-08-19T05:49:42.131Z,6.58
2018-08-19T05:52:26.767Z,6.40
2018-08-19T05:54:59.631Z,6.22
2018-08-19T05:57:30.300Z,6.00
2018-08-19T05:59:59.109Z,7.10
2018-08-19T06:02:34.038Z,6.33
2018-08-19T06:05:03.694Z,6.62
2018-08-19T06:07:32.294Z,6.28
2018-08-19T06:10:00.847Z,5.80
2018-08-19T06:12:29.562Z,6.58
2018-08-19T06:15:00.272Z,6.03
2018-08-19T06:17:28.774Z,6.12
2018-08-19T06:19:57.593Z,5.70
2018-08-19T06:22:41.676Z,4.97
2018-08-19T06:25:11.155Z,5.03
2018-08-19T06:27:42.818Z,5.55
2018-08-19T06:30:11.607Z,5.05
2018-08-19T06:32:40.104Z,4.78
2018-08-19T06:35:08.764Z,5.47
2018-08-19T06:37:37.161Z,5.00
2018-08-19T06:40:06.917Z,5.60
2018-08-19T06:42:35.309Z,5.22
2018-08-19T06:45:03.429Z,5.03
2018-08-19T06:47:32.033Z,5.22
2018-08-19T06:50:01.095Z,5.00
2018-08-19T06:52:29.653Z,4.60
2018-08-19T06:54:58.113Z,4.10
2018-08-19T06:57:28.792Z,4.95
2018-08-19T06:59:57.396Z,5.03
2018-08-19T07:02:27.176Z,4.85
2018-08-19T07:04:55.605Z,4.72
2018-08-19T07:07:23.993Z,5.65
2018-08-19T07:09:52.400Z,5.15
2018-08-19T07:12:22.180Z,5.85
2018-08-19T07:14:50.996Z,4.95
2018-08-19T07:17:19.784Z,5.72
2018-08-19T07:19:48.232Z,5.78
2018-08-19T07:22:18.880Z,5.08
2018-08-19T07:24:47.269Z,5.45
2018-08-19T07:27:15.686Z,4.90
2018-08-19T07:29:44.163Z,5.58
2018-08-19T07:32:13.155Z,5.25
2018-08-19T07:34:41.634Z,5.55
2018-08-19T07:37:10.112Z,5.05
2018-08-19T07:39:45.033Z,4.70
2018-08-19T07:42:13.755Z,4.58
2018-08-19T07:44:42.207Z,4.40
2018-08-19T07:47:10.627Z,4.58
2018-08-19T07:49:39.035Z,5.30
2018-08-19T07:52:07.644Z,4.72
2018-08-19T07:54:36.090Z,4.20
2018-08-19T07:57:14.232Z,4.85
2018-08-19T07:59:43.645Z,4.70
2018-08-19T08:02:12.083Z,4.83
2018-08-19T08:04:43.500Z,4.50
2018-08-19T08:07:12.773Z,3.60
2018-08-19T08:09:41.853Z,4.55
2018-08-19T08:12:11.561Z,4.42
2018-08-19T08:14:44.201Z,4.55
2018-08-19T08:17:12.640Z,4.37
2018-08-19T08:19:47.117Z,4.40
2018-08-19T08:22:17.047Z,3.67
2018-08-19T08:24:45.485Z,4.72
2018-08-19T08:27:14.820Z,3.80
2018-08-19T08:29:43.682Z,3.80
2018-08-19T08:32:12.591Z,3.58
2018-08-19T08:34:41.036Z,3.90
2018-08-19T08:37:09.892Z,4.30
2018-08-19T08:39:39.081Z,4.00
2018-08-19T08:42:07.797Z,3.80
2018-08-19T08:44:36.227Z,3.80
2018-08-19T08:47:07.407Z,3.80
2018-08-19T08:49:41.144Z,3.55
2018-08-19T08:52:16.066Z,3.35
2018-08-19T08:54:49.925Z,3.37
2018-08-19T08:57:19.421Z,3.72
2018-08-19T08:59:47.913Z,3.00
2018-08-19T09:02:16.372Z,3.40
2018-08-19T09:04:44.774Z,3.70
2018-08-19T09:07:13.200Z,3.02
2018-08-19T09:09:42.707Z,3.12
2018-08-19T09:12:12.471Z,3.87
2018-08-19T09:14:41.397Z,3.55
2018-08-19T09:17:10.013Z,3.83
2018-08-19T09:19:38.817Z,3.62
2018-08-19T09:22:07.217Z,3.77
2018-08-19T09:24:35.677Z,3.62
2018-08-19T09:27:04.153Z,3.67
2018-08-19T09:29:32.575Z,4.22
2018-08-19T09:32:00.953Z,4.37
2018-08-19T09:34:30.016Z,3.50
2018-08-19T09:37:00.175Z,3.47
2018-08-19T09:39:28.975Z,3.77
2018-08-19T09:42:13.144Z,3.70
2018-08-19T09:44:42.733Z,3.60
2018-08-19T09:47:11.149Z,3.58
2018-08-19T09:49:39.578Z,3.70
2018-08-19T09:52:08.080Z,3.58
2018-08-19T09:54:37.652Z,3.90
2018-08-19T09:57:07.141Z,4.17
2018-08-19T09:59:35.598Z,3.90
2018-08-19T10:02:07.199Z,3.98
2018-08-19T10:04:35.637Z,3.58
2018-08-19T10:07:09.510Z,4.03
2018-08-19T10:09:37.792Z,3.27
2018-08-19T10:12:06.464Z,3.52
2018-08-19T10:14:34.897Z,4.08
2018-08-19T10:17:03.386Z,3.55
2018-08-19T10:19:31.816Z,3.42
2018-08-19T10:22:00.222Z,3.50
2018-08-19T10:24:33.030Z,3.20
2018-08-19T10:27:01.566Z,2.87
2018-08-19T10:29:29.981Z,2.70
2018-08-19T10:32:00.398Z,3.00
2018-08-19T10:34:32.369Z,3.52
2018-08-19T10:37:01.454Z,3.95
2018-08-19T10:39:29.883Z,3.27
2018-08-19T10:42:13.834Z,3.33
2018-08-19T10:44:42.615Z,3.47
2018-08-19T10:47:11.049Z,3.33
2018-08-19T10:49:39.571Z,3.40
2018-08-19T10:52:11.453Z,3.75
2018-08-19T10:54:39.839Z,2.83
2018-08-19T10:57:19.614Z,3.00
2018-08-19T10:59:52.425Z,2.85
2018-08-19T11:02:20.929Z,2.92
2018-08-19T11:04:49.703Z,3.37
2018-08-19T11:07:18.834Z,3.33
2018-08-19T11:09:59.071Z,3.12
2018-08-19T11:12:27.562Z,3.00
2018-08-19T11:14:55.936Z,3.25
2018-08-19T11:17:24.369Z,2.70
2018-08-19T11:19:52.770Z,3.50
2018-08-19T11:22:21.173Z,2.40
2018-08-19T11:24:49.553Z,2.83
2018-08-19T11:27:18.018Z,3.08
2018-08-19T11:29:46.552Z,2.83
2018-08-19T11:32:29.225Z,2.83
2018-08-19T11:34:57.613Z,3.50
2018-08-19T11:37:26.116Z,2.90
2018-08-19T11:39:54.591Z,2.87
2018-08-19T11:42:23.013Z,3.15
2018-08-19T11:44:51.407Z,2.70
2018-08-19T11:47:19.820Z,2.67
2018-08-19T11:49:48.200Z,2.95
2018-08-19T11:52:16.636Z,3.02
2018-08-19T11:54:45.013Z,3.00
2018-08-19T11:57:13.567Z,3.05
2018-08-19T11:59:44.068Z,2.90
2018-08-19T12:02:14.325Z,2.83
2018-08-19T12:04:42.754Z,2.70
2018-08-19T12:07:11.190Z,2.80
2018-08-19T12:09:43.724Z,2.90
2018-08-19T12:12:12.173Z,2.62
2018-08-19T12:14:40.577Z,3.00
2018-08-19T12:17:10.476Z,2.45
2018-08-19T12:19:43.712Z,3.22
2018-08-19T12:22:12.140Z,2.62
2018-08-19T12:24:45.151Z,2.60
2018-08-19T12:27:15.074Z,2.62
2018-08-19T12:29:44.153Z,3.10
2018-08-19T12:32:18.336Z,2.52
2018-08-19T12:34:48.993Z,3.25
2018-08-19T12:37:18.600Z,2.83
2018-08-19T12:39:47.281Z,2.42
2018-08-19T12:42:15.693Z,2.58
2018-08-19T12:44:54.308Z,2.98
2018-08-19T12:47:24.371Z,3.25
2018-08-19T12:49:56.150Z,2.80
2018-08-19T12:52:27.068Z,2.30
2018-08-19T12:55:00.880Z,3.05
2018-08-19T12:57:29.306Z,2.90
2018-08-19T13:00:33.160Z,3.15
2018-08-19T13:03:01.909Z,2.72
2018-08-19T13:05:30.370Z,2.62
2018-08-19T13:07:59.014Z,2.80
2018-08-19T13:10:36.930Z,2.62
2018-08-19T13:13:05.961Z,3.02
2018-08-19T13:15:34.352Z,2.75
2018-08-19T13:18:02.782Z,2.83
2018-08-19T13:20:31.182Z,2.62
2018-08-19T13:23:05.428Z,2.50
2018-08-19T13:25:35.026Z,2.47
2018-08-19T13:28:03.450Z,2.92
2018-08-19T13:30:31.861Z,2.65
2018-08-19T13:33:00.288Z,2.45
2018-08-19T13:35:28.717Z,2.70
2018-08-19T13:37:57.109Z,3.02
2018-08-19T13:40:25.542Z,2.70
2018-08-19T13:42:53.956Z,3.40
2018-08-19T13:45:23.646Z,2.75
2018-08-19T13:47:53.403Z,2.70
2018-08-19T13:50:21.864Z,2.65
2018-08-19T13:52:50.694Z,2.30
2018-08-19T13:55:20.597Z,2.75
2018-08-19T13:57:49.051Z,2.92
2018-08-19T14:00:19.676Z,2.65
2018-08-19T14:02:48.638Z,2.90
2018-08-19T14:05:17.057Z,2.47
2018-08-19T14:07:45.465Z,3.10
2018-08-19T14:10:14.960Z,2.72
2018-08-19T14:12:43.374Z,2.77
2018-08-19T14:15:11.810Z,2.90
2018-08-19T14:17:40.183Z,2.80
2018-08-19T14:20:09.595Z,2.65
2018-08-19T14:22:38.155Z,2.37
2018-08-19T14:25:07.868Z,2.55
2018-08-19T14:27:36.597Z,2.80
2018-08-19T14:30:05.984Z,2.80
2018-08-19T14:32:42.764Z,2.50
2018-08-19T14:35:11.239Z,2.98
2018-08-19T14:37:39.636Z,2.70
2018-08-19T14:40:11.291Z,2.72
2018-08-19T14:42:39.644Z,2.72
2018-08-19T14:45:08.004Z,2.87
2018-08-19T14:47:36.470Z,2.80
2018-08-19T14:50:17.240Z,2.80
2018-08-19T14:52:45.871Z,2.52
2018-08-19T14:55:14.353Z,2.60
2018-08-19T14:57:43.038Z,2.70
2018-08-19T15:00:14.453Z,2.62
2018-08-19T15:02:42.932Z,2.92
2018-08-19T15:05:17.919Z,2.72
2018-08-19T15:07:46.301Z,2.67
2018-08-19T15:10:18.501Z,2.55
2018-08-19T15:12:46.955Z,2.58
2018-08-19T15:15:15.340Z,2.27
2018-08-19T15:17:48.711Z,2.67
2018-08-19T15:20:21.676Z,2.77
2018-08-19T15:22:50.185Z,2.58
2018-08-19T15:25:18.583Z,2.62
2018-08-19T15:27:54.042Z,3.10
2018-08-19T15:30:27.864Z,2.55
2018-08-19T15:32:56.587Z,2.30
2018-08-19T15:35:24.710Z,2.80
2018-08-19T15:37:53.104Z,2.72
2018-08-19T15:40:32.587Z,2.35
2018-08-19T15:43:00.986Z,2.27
2018-08-19T15:45:29.392Z,2.92
2018-08-19T15:47:57.833Z,2.50
2018-08-19T15:50:25.964Z,2.90
2018-08-19T15:52:54.479Z,2.62
2018-08-19T15:55:22.933Z,2.77
2018-08-19T15:57:51.341Z,2.90
2018-08-19T16:00:19.769Z,2.70
2018-08-19T16:02:48.205Z,2.62
2018-08-19T16:05:17.603Z,2.90
2018-08-19T16:07:46.773Z,2.35
2018-08-19T16:10:16.103Z,2.83
2018-08-19T16:12:48.969Z,2.45
2018-08-19T16:15:29.782Z,2.95
2018-08-19T16:17:58.528Z,2.55
2018-08-19T16:20:26.957Z,2.20
2018-08-19T16:22:55.381Z,2.60
2018-08-19T16:25:23.818Z,2.37
2018-08-19T16:27:52.371Z,2.70
2018-08-19T16:30:21.136Z,2.45
2018-08-19T16:32:49.616Z,2.37
2018-08-19T16:35:18.025Z,2.47
2018-08-19T16:37:46.431Z,2.50
2018-08-19T16:40:14.918Z,2.30
2018-08-19T16:42:43.324Z,2.42
2018-08-19T16:45:12.740Z,2.27
2018-08-19T16:47:41.121Z,2.58
2018-08-19T16:50:11.990Z,2.77
2018-08-19T16:52:40.365Z,2.10
2018-08-19T16:55:09.659Z,2.17
2018-08-19T16:57:38.082Z,2.65
2018-08-19T17:00:07.789Z,3.47
2018-08-19T17:02:36.364Z,2.10
2018-08-19T17:05:41.260Z,2.55
2018-08-19T17:08:09.657Z,2.62
2018-08-19T17:10:38.047Z,2.30
2018-08-19T17:13:06.471Z,2.40
2018-08-19T17:15:34.843Z,4.45
2018-08-19T17:18:03.268Z,4.60
2018-08-19T17:20:31.672Z,3.87
2018-08-19T17:23:00.100Z,2.45
2018-08-19T17:25:28.473Z,2.30
2018-08-19T17:27:59.913Z,2.67
2018-08-19T17:30:28.562Z,7.78
2018-08-19T17:33:01.259Z,5.45
2018-08-19T17:35:29.585Z,4.58
2018-08-19T17:37:58.063Z,3.90
2018-08-19T17:40:26.469Z,2.62
2018-08-19T17:42:55.012Z,2.95
2018-08-19T17:45:23.460Z,2.65
2018-08-19T17:47:51.848Z,1.98
2018-08-19T17:50:25.228Z,2.17
2018-08-19T17:52:55.040Z,2.60
2018-08-19T17:55:23.933Z,2.40
2018-08-19T17:57:52.546Z,2.20
2018-08-19T18:00:22.334Z,2.33
2018-08-19T18:02:51.042Z,2.58
2018-08-19T18:05:19.515Z,2.50
2018-08-19T18:07:49.037Z,2.20
2018-08-19T18:10:17.439Z,2.52
2018-08-19T18:12:45.969Z,2.37
2018-08-19T18:15:14.472Z,2.65
2018-08-19T18:17:51.899Z,2.37
2018-08-19T18:20:25.605Z,2.60
2018-08-19T18:22:55.237Z,2.60
2018-08-19T18:25:24.659Z,2.58
2018-08-19T18:27:53.020Z,2.65
2018-08-19T18:30:25.393Z,2.50
2018-08-19T18:32:54.094Z,2.67
2018-08-19T18:35:23.656Z,2.90
2018-08-19T18:37:52.112Z,3.25
2018-08-19T18:40:25.898Z,2.92
2018-08-19T18:42:54.323Z,2.70
2018-08-19T18:45:22.728Z,2.45
2018-08-19T18:47:56.482Z,2.65
2018-08-19T18:50:25.776Z,2.85
2018-08-19T18:52:54.600Z,2.85
2018-08-19T18:55:23.044Z,2.95
2018-08-19T18:57:53.558Z,3.98
2018-08-19T19:00:23.936Z,3.50
2018-08-19T19:02:59.828Z,3.42
2018-08-19T19:05:44.168Z,3.47
2018-08-19T19:08:13.712Z,4.37
2018-08-19T19:10:56.919Z,3.47
2018-08-19T19:13:26.364Z,3.45
2018-08-19T19:15:54.798Z,3.58
2018-08-19T19:18:23.299Z,3.85
2018-08-19T19:20:57.205Z,4.62
2018-08-19T19:23:29.901Z,4.35
2018-08-19T19:25:58.741Z,3.95
2018-08-19T19:28:27.240Z,4.80
2018-08-19T19:31:06.545Z,5.60
2018-08-19T19:33:35.669Z,5.45
2018-08-19T19:36:09.401Z,4.55
2018-08-19T19:38:45.398Z,4.97
2018-08-19T19:41:13.813Z,3.95
2018-08-19T19:43:42.391Z,4.50
2018-08-19T19:46:10.827Z,4.20
2018-08-19T19:48:39.232Z,4.58
2018-08-19T19:51:07.698Z,4.33
2018-08-19T19:53:36.158Z,4.67
2018-08-19T19:56:09.936Z,4.70
2018-08-19T19:58:38.334Z,5.20
2018-08-19T20:01:06.766Z,4.92
2018-08-19T20:03:40.668Z,4.85
2018-08-19T20:06:09.155Z,4.83
2018-08-19T20:08:37.694Z,4.70
2018-08-19T20:11:10.474Z,4.97
2018-08-19T20:13:38.881Z,5.10
2018-08-19T20:16:07.547Z,5.50
2018-08-19T20:18:35.953Z,5.67
2018-08-19T20:21:07.256Z,5.67
2018-08-19T20:23:35.642Z,5.22
2018-08-19T20:26:04.129Z,5.30
2018-08-19T20:28:32.487Z,5.17
2018-08-19T20:31:00.973Z,5.00
2018-08-19T20:33:29.756Z,4.65
2018-08-19T20:35:58.297Z,4.95
2018-08-19T20:38:26.724Z,4.50
2018-08-19T20:40:55.910Z,5.35
2018-08-19T20:43:25.094Z,4.95
2018-08-19T20:45:53.750Z,6.03
2018-08-19T20:48:22.760Z,5.33
2018-08-19T20:50:51.176Z,5.22
2018-08-19T20:53:19.913Z,5.00
2018-08-19T20:55:48.740Z,4.45
2018-08-19T20:58:17.107Z,4.60
2018-08-19T21:00:45.520Z,5.00
2018-08-19T21:03:13.925Z,4.80
2018-08-19T21:05:42.317Z,4.90
2018-08-19T21:08:15.722Z,4.95
2018-08-19T21:10:45.090Z,4.58
2018-08-19T21:13:14.627Z,5.17
2018-08-19T21:15:44.293Z,4.15
2018-08-19T21:18:12.715Z,4.72
2018-08-19T21:20:41.292Z,5.40
2018-08-19T21:23:09.705Z,5.25
2018-08-19T21:25:46.886Z,5.03
2018-08-19T21:28:15.833Z,4.75
2018-08-19T21:30:44.328Z,4.67
2018-08-19T21:33:12.727Z,5.47
2018-08-19T21:35:46.379Z,5.12
2018-08-19T21:38:14.964Z,4.75
2018-08-19T21:40:43.380Z,4.80
2018-08-19T21:43:12.120Z,4.78
2018-08-19T21:45:40.681Z,4.80
2018-08-19T21:48:14.256Z,4.75
2018-08-19T21:50:42.749Z,4.62
2018-08-19T21:53:15.749Z,5.15
2018-08-19T21:55:46.486Z,4.95
2018-08-19T21:58:14.964Z,4.67
2018-08-19T22:00:45.805Z,4.47
2018-08-19T22:03:20.718Z,4.42
2018-08-19T22:05:50.544Z,4.87
2018-08-19T22:08:19.032Z,4.40
2018-08-19T22:10:48.497Z,4.72
2018-08-19T22:13:16.933Z,4.30
2018-08-19T22:15:46.306Z,4.17
2018-08-19T22:18:17.377Z,4.50
2018-08-19T22:20:59.050Z,4.42
2018-08-19T22:23:32.905Z,4.50
2018-08-19T22:26:01.301Z,4.90
2018-08-19T22:28:29.702Z,4.25
2018-08-19T22:30:59.163Z,4.58
2018-08-19T22:33:27.631Z,4.40
2018-08-19T22:35:56.081Z,4.50
2018-08-19T22:38:24.479Z,4.55
2018-08-19T22:40:52.904Z,4.70
2018-08-19T22:43:21.324Z,5.75
2018-08-19T22:45:49.809Z,4.55
2018-08-19T22:48:33.697Z,4.62
2018-08-19T22:51:02.136Z,4.25
2018-08-19T22:53:30.537Z,5.15
2018-08-19T22:55:58.982Z,4.47
2018-08-19T22:58:27.356Z,4.53
2018-08-19T23:00:55.790Z,5.03
2018-08-19T23:03:24.180Z,4.67
2018-08-19T23:05:52.716Z,4.72
2018-08-19T23:08:26.340Z,4.17
2018-08-19T23:10:56.041Z,4.70
2018-08-19T23:13:35.579Z,4.40
2018-08-19T23:16:06.816Z,4.35
2018-08-19T23:18:35.386Z,4.45
2018-08-19T23:21:03.864Z,4.30
2018-08-19T23:23:32.621Z,4.55
2018-08-19T23:26:01.329Z,4.75
2018-08-19T23:28:29.717Z,4.33
2018-08-19T23:30:58.385Z,4.10
2018-08-19T23:33:26.759Z,4.42
2018-08-19T23:35:55.373Z,5.00
2018-08-19T23:38:23.768Z,4.47
2018-08-19T23:40:52.169Z,4.58
2018-08-19T23:43:20.561Z,4.65
2018-08-19T23:45:48.965Z,4.28
2018-08-19T23:48:17.342Z,4.90
2018-08-19T23:50:45.775Z,4.50
2018-08-19T23:53:14.209Z,4.75
2018-08-19T23:55:42.656Z,4.80
2018-08-19T23:58:11.117Z,4.90
